Time;durP1;ratioP1;P1;durP2;ratioP2;P2;SDS_P1;SDS_P2;PMS_P1;PMS_P2;Temp;Humidity;BMP_temperature;BMP_pressure;BME280_temperature;BME280_humidity;BME280_pressure;Samples;Min_cycle;Max_cycle;Signal;HPM_P1;HPM_P2
2023/08/03 00:09:02;;;;;;;3.90;1.33;;;;;;;16.60;100.00;96728.63;18438283;32;20439;-58
2023/08/03 00:19:05;;;;;;;5.80;1.67;;;;;;;16.48;100.00;96741.44;18437733;32;20069;-58
2023/08/03 00:29:08;;;;;;;7.93;1.30;;;;;;;16.50;100.00;96734.50;18430445;32;20432;-58
2023/08/03 00:39:10;;;;;;;5.82;1.70;;;;;;;16.52;100.00;96729.50;18436188;32;20053;-58
2023/08/03 00:49:13;;;;;;;5.85;1.60;;;;;;;16.48;100.00;96714.94;18435619;32;20057;-58
2023/08/03 00:59:17;;;;;;;9.30;1.70;;;;;;;16.41;100.00;96703.75;18421092;32;20077;-58
2023/08/03 01:09:20;;;;;;;6.57;1.23;;;;;;;16.64;100.00;96711.62;18420536;32;20427;-58
2023/08/03 01:19:23;;;;;;;6.32;1.30;;;;;;;16.76;100.00;96719.88;18434228;32;20082;-58
2023/08/03 01:29:25;;;;;;;5.68;1.23;;;;;;;16.97;100.00;96735.47;18433309;32;20080;-58
2023/08/03 01:39:28;;;;;;;7.87;1.50;;;;;;;17.04;100.00;96754.84;18433180;32;20065;-58
2023/08/03 01:49:32;;;;;;;8.70;1.62;;;;;;;17.03;100.00;96755.97;18405227;32;20365;-58
2023/08/03 01:59:34;;;;;;;4.80;1.35;;;;;;;17.01;100.00;96755.50;18432195;32;20126;-58
2023/08/03 02:09:38;;;;;;;6.70;1.03;;;;;;;16.98;100.00;96756.16;18431531;32;20076;-58
2023/08/03 02:19:40;;;;;;;5.13;1.00;;;;;;;16.88;100.00;96766.34;18424439;32;20343;-58
2023/08/03 02:29:43;;;;;;;3.72;1.00;;;;;;;16.84;100.00;96770.88;18431049;32;20441;-58
2023/08/03 02:39:46;;;;;;;4.07;1.25;;;;;;;16.84;100.00;96767.31;18430562;32;20057;-58
2023/08/03 02:49:49;;;;;;;2.53;1.02;;;;;;;16.89;100.00;96783.53;18430102;32;20057;-58
2023/08/03 02:59:51;;;;;;;2.23;0.67;;;;;;;16.86;100.00;96784.97;18424736;32;20102;-58
2023/08/03 03:09:54;;;;;;;3.12;0.85;;;;;;;16.79;100.00;96782.00;18442235;32;20420;-58
2023/08/03 03:19:57;;;;;;;3.03;0.85;;;;;;;16.55;100.00;96801.72;18427349;32;20057;-58
2023/08/03 03:29:59;;;;;;;1.45;0.60;;;;;;;16.41;100.00;96813.66;18414342;32;20053;-58
2023/08/03 03:40:04;;;;;;;2.35;0.62;;;;;;;16.26;100.00;96823.22;18440083;32;20105;-58
2023/08/03 03:50:06;;;;;;;2.97;0.53;;;;;;;16.12;100.00;96821.84;18439253;32;20067;-58
2023/08/03 04:00:10;;;;;;;2.92;0.40;;;;;;;16.07;100.00;96831.81;18438924;32;20076;-58
2023/08/03 04:10:12;;;;;;;1.57;0.50;;;;;;;16.03;100.00;96821.88;18430600;32;20080;-58
2023/08/03 04:20:16;;;;;;;3.83;1.13;;;;;;;16.08;100.00;96835.31;18437620;32;20077;-58
2023/08/03 04:30:19;;;;;;;2.83;0.73;;;;;;;16.13;100.00;96829.69;18437098;32;20058;-58
2023/08/03 04:40:22;;;;;;;2.95;0.65;;;;;;;16.13;100.00;96853.44;18423045;32;20058;-58
2023/08/03 04:50:24;;;;;;;3.35;0.60;;;;;;;16.01;100.00;96854.13;18435671;32;20444;-58
2023/08/03 05:00:27;;;;;;;7.07;0.80;;;;;;;15.85;100.00;96876.44;18435306;32;20053;-58
2023/08/03 05:10:29;;;;;;;4.78;0.85;;;;;;;15.96;100.00;96885.06;18420986;32;20049;-58
2023/08/03 05:20:32;;;;;;;3.05;0.80;;;;;;;16.18;100.00;96880.53;18433733;32;20147;-58
2023/08/03 05:30:36;;;;;;;2.50;0.55;;;;;;;16.11;100.00;96867.41;18433463;32;20080;-58
2023/08/03 05:40:40;;;;;;;0.33;0.17;;;;;;;16.30;100.00;96868.94;18432867;32;20053;-59
2023/08/03 05:50:48;;;;;;;1.80;0.55;;;;;;;16.14;100.00;96849.59;18432101;32;20061;-58
2023/08/03 06:00:51;;;;;;;1.52;0.40;;;;;;;16.32;100.00;96848.41;18411200;32;20058;-59
2023/08/03 06:10:57;;;;;;;3.83;0.60;;;;;;;16.66;100.00;96862.19;18417345;32;20072;-59
2023/08/03 06:21:04;;;;;;;1.60;0.52;;;;;;;16.96;100.00;96870.41;18417896;32;20159;-59
2023/08/03 06:31:15;;;;;;;2.17;0.52;;;;;;;17.21;100.00;96874.06;18435196;32;20404;-58
2023/08/03 06:41:18;;;;;;;1.23;0.40;;;;;;;17.60;100.00;96897.38;18443823;32;20074;-59
2023/08/03 06:51:21;;;;;;;2.20;0.30;;;;;;;17.79;100.00;96905.09;18443006;32;20110;-58
2023/08/03 07:01:25;;;;;;;1.40;0.50;;;;;;;18.11;100.00;96918.34;18428674;32;20076;-58
2023/08/03 07:11:28;;;;;;;3.33;0.50;;;;;;;18.26;100.00;96912.19;18441871;32;20066;-58
2023/08/03 07:21:32;;;;;;;0.55;0.30;;;;;;;18.55;100.00;96915.09;18441525;32;20122;-58
2023/08/03 07:31:35;;;;;;;2.00;0.40;;;;;;;18.74;100.00;96925.50;18426920;32;20097;-59
2023/08/03 07:41:38;;;;;;;1.70;0.63;;;;;;;19.08;100.00;96923.47;18439993;32;20068;-58
2023/08/03 07:51:43;;;;;;;1.40;0.40;;;;;;;19.36;100.00;96948.19;18439549;32;20064;-58
2023/08/03 08:01:47;;;;;;;1.00;0.52;;;;;;;19.77;100.00;96965.47;18439083;32;20094;-58
2023/08/03 08:11:51;;;;;;;;;;;;;;;19.61;99.82;96961.84;18424996;32;20041;-59
2023/08/03 08:21:54;;;;;;;1.87;0.62;;;;;;;19.64;100.00;96975.66;18411605;32;19967;-58
2023/08/03 08:32:15;;;;;;;2.22;0.50;;;;;;;20.16;98.61;96978.75;18437245;32;20057;-58
2023/08/03 08:42:18;;;;;;;3.47;0.57;;;;;;;20.23;86.61;96989.13;18436410;32;20100;-59
2023/08/03 08:52:25;;;;;;;1.15;0.55;;;;;;;20.25;97.03;96984.06;18369812;32;20057;-58
2023/08/03 09:02:29;;;;;;;0.88;0.40;;;;;;;20.16;93.31;96995.22;18345087;32;20467;-58
2023/08/03 09:12:33;;;;;;;2.60;0.30;;;;;;;20.10;100.00;96999.34;18370296;32;20362;-58
2023/08/03 09:22:45;;;;;;;2.08;0.25;;;;;;;20.14;100.00;96997.50;18370167;32;20458;-58
2023/08/03 09:32:52;;;;;;;0.95;0.35;;;;;;;20.42;100.00;97002.97;18368620;32;20069;-58
2023/08/03 09:42:56;;;;;;;1.83;0.30;;;;;;;20.36;100.00;97001.62;18362285;32;20408;-58
2023/08/03 09:53:07;;;;;;;0.70;0.20;;;;;;;20.54;100.00;97020.53;18427047;32;20053;-58
2023/08/03 10:03:18;;;;;;;1.17;0.40;;;;;;;21.58;100.00;96998.37;18431858;32;20061;-58
2023/08/03 10:13:25;;;;;;;1.08;0.30;;;;;;;21.83;87.26;97014.66;18431626;32;20061;-59
2023/08/03 10:23:29;;;;;;;0.70;0.40;;;;;;;22.34;77.38;97016.50;18431830;32;20365;-58
2023/08/03 10:33:51;;;;;;;3.50;0.40;;;;;;;22.02;79.87;97008.34;18410208;32;20098;-58
2023/08/03 10:44:07;;;;;;;0.57;0.30;;;;;;;22.39;88.68;97015.41;18416765;32;20061;-59
2023/08/03 10:54:11;;;;;;;2.42;0.50;;;;;;;22.60;79.07;97026.03;18430529;32;20113;-58
2023/08/03 11:04:23;;;;;;;1.42;0.40;;;;;;;22.24;80.90;97026.13;18416789;32;20062;-58
2023/08/03 11:14:28;;;;;;;1.05;0.50;;;;;;;23.08;87.26;97028.44;18430083;32;20160;-58
2023/08/03 11:24:32;;;;;;;3.15;0.50;;;;;;;23.75;78.32;97033.47;18427761;32;20068;-58
2023/08/03 11:34:36;;;;;;;0.77;0.28;;;;;;;23.93;70.00;97027.41;18440696;32;20077;-58
2023/08/03 11:44:40;;;;;;;0.93;0.30;;;;;;;23.84;64.84;97019.38;18439967;32;20096;-58
2023/08/03 11:54:57;;;;;;;1.17;0.50;;;;;;;24.68;62.68;97028.31;18427427;32;20104;-58
2023/08/03 12:05:00;;;;;;;1.02;0.22;;;;;;;25.12;67.33;97039.78;18438929;32;20057;-58
2023/08/03 12:15:07;;;;;;;0.40;0.10;;;;;;;25.25;55.79;97043.84;18412428;32;20079;-58
2023/08/03 12:25:10;;;;;;;1.85;0.20;;;;;;;25.15;57.18;97055.62;18424095;32;20373;-58
2023/08/03 12:35:15;;;;;;;1.30;0.25;;;;;;;25.58;61.62;97053.22;18436629;32;20067;-58
2023/08/03 12:45:22;;;;;;;0.47;0.15;;;;;;;25.40;55.83;97058.63;18422011;32;20077;-58
2023/08/03 12:55:27;;;;;;;0.30;0.10;;;;;;;25.19;58.74;97053.69;18435823;32;20053;-58
2023/08/03 13:05:34;;;;;;;0.70;0.20;;;;;;;25.90;58.70;97051.84;18421029;32;20076;-58
2023/08/03 13:15:41;;;;;;;1.95;0.25;;;;;;;26.28;59.27;97058.00;18427947;32;20056;-58
2023/08/03 13:25:44;;;;;;;0.60;0.30;;;;;;;26.28;60.24;97055.22;18434070;32;20057;-58
2023/08/03 13:35:49;;;;;;;1.48;0.20;;;;;;;26.43;59.18;97058.84;18433553;32;20105;-58
2023/08/03 13:45:53;;;;;;;2.42;0.40;;;;;;;26.27;57.83;97051.69;18418686;32;20105;-59
2023/08/03 13:55:58;;;;;;;1.10;0.30;;;;;;;26.82;57.28;97060.97;18432258;32;20101;-58
2023/08/03 14:06:01;;;;;;;2.12;0.30;;;;;;;27.33;52.46;97061.84;18432480;32;20057;-59
2023/08/03 14:16:10;;;;;;;0.30;0.20;;;;;;;27.25;53.74;97057.47;18431293;32;20078;-59
2023/08/03 14:26:17;;;;;;;1.42;0.20;;;;;;;27.39;46.82;97063.03;18404913;32;20050;-58
2023/08/03 14:36:20;;;;;;;1.17;0.30;;;;;;;27.19;52.28;97054.31;18430819;32;20083;-58
2023/08/03 14:46:23;;;;;;;0.70;0.30;;;;;;;27.98;48.05;97059.00;18416094;32;20076;-58
2023/08/03 14:56:27;;;;;;;2.40;0.45;;;;;;;28.21;44.72;97048.22;18439758;32;20061;-58
2023/08/03 15:06:32;;;;;;;1.30;0.43;;;;;;;28.47;44.29;97054.47;18436523;32;20106;-58
2023/08/03 15:16:42;;;;;;;3.12;0.60;;;;;;;27.51;45.24;97037.66;18428023;32;20362;-57
2023/08/03 15:26:47;;;;;;;2.78;0.40;;;;;;;26.54;45.30;97029.19;18441838;32;20069;-58
2023/08/03 15:37:00;;;;;;;0.95;0.40;;;;;;;25.83;47.21;97033.19;18440794;32;20428;-58
2023/08/03 15:47:08;;;;;;;2.20;0.50;;;;;;;25.40;51.93;97032.94;18427261;32;20478;-58
2023/08/03 15:57:32;;;;;;;1.30;0.50;;;;;;;25.82;50.25;97028.87;18436651;32;20058;-57
2023/08/03 16:07:35;;;;;;;0.95;0.30;;;;;;;24.85;51.84;97054.56;18421943;32;20061;-57
2023/08/03 16:17:41;;;;;;;1.95;0.55;;;;;;;23.72;55.94;97047.19;18424561;32;20089;-57
2023/08/03 16:27:45;;;;;;;2.67;0.50;;;;;;;23.20;67.94;97049.53;18424755;32;20416;-57
2023/08/03 16:37:48;;;;;;;1.27;0.47;;;;;;;23.55;72.49;97052.06;18436976;32;20113;-58
2023/08/03 16:47:52;;;;;;;1.33;0.40;;;;;;;23.84;66.40;97052.50;18436644;32;20081;-57
2023/08/03 16:57:56;;;;;;;1.00;0.30;;;;;;;23.17;77.00;97042.81;18429084;32;20120;-57
2023/08/03 17:07:59;;;;;;;1.80;0.60;;;;;;;22.50;77.81;97043.94;18421333;32;20066;-58
2023/08/03 17:18:03;;;;;;;1.37;0.45;;;;;;;22.03;80.48;97044.94;18434102;32;20473;-57
2023/08/03 17:28:09;;;;;;;1.77;0.40;;;;;;;21.79;82.94;97039.34;18421030;32;20073;-58
2023/08/03 17:38:13;;;;;;;1.08;0.50;;;;;;;21.54;85.12;97057.22;18406744;32;20076;-57
2023/08/03 17:48:16;;;;;;;1.87;0.40;;;;;;;21.39;86.39;97073.38;18417697;32;20109;-57
2023/08/03 17:58:19;;;;;;;2.17;0.57;;;;;;;21.45;95.71;97080.19;18415946;32;20108;-57
2023/08/03 18:08:22;;;;;;;;;;;;;;;21.37;100.00;97094.12;18429612;32;20355;-57
2023/08/03 18:18:25;;;;;;;2.17;0.70;;;;;;;21.24;100.00;97099.72;18429142;32;19948;-57
2023/08/03 18:28:29;;;;;;;0.60;0.20;;;;;;;21.06;100.00;97101.97;18427931;32;20066;-57
2023/08/03 18:38:34;;;;;;;0.98;0.40;;;;;;;20.85;100.00;97099.47;18414535;32;20068;-57
2023/08/03 18:48:38;;;;;;;1.70;0.25;;;;;;;20.65;100.00;97104.81;18428824;32;20086;-57
2023/08/03 18:58:42;;;;;;;2.12;0.50;;;;;;;20.34;100.00;97112.94;18430117;32;20053;-57
2023/08/03 19:08:45;;;;;;;5.10;2.53;;;;;;;19.91;100.00;97143.44;18403152;32;20105;-57
2023/08/03 19:18:49;;;;;;;2.25;1.02;;;;;;;19.52;100.00;97147.66;18429618;32;20054;-57
2023/08/03 19:28:51;;;;;;;3.53;1.12;;;;;;;19.11;100.00;97144.72;18415778;32;20053;-57
2023/08/03 19:38:54;;;;;;;1.00;0.50;;;;;;;18.66;100.00;97165.41;18426861;32;20081;-57
2023/08/03 19:48:59;;;;;;;1.70;0.45;;;;;;;18.35;100.00;97182.25;18439803;32;20490;-57
2023/08/03 19:59:02;;;;;;;3.12;0.43;;;;;;;18.16;100.00;97189.00;18439481;32;20061;-58
2023/08/03 20:09:09;;;;;;;0.50;0.20;;;;;;;18.01;100.00;97167.69;18412539;32;20461;-57
2023/08/03 20:19:12;;;;;;;1.02;0.30;;;;;;;17.85;100.00;97198.28;18424520;32;20072;-57
2023/08/03 20:29:15;;;;;;;2.05;0.30;;;;;;;17.69;100.00;97189.03;18437793;32;20082;-57
2023/08/03 20:39:22;;;;;;;1.25;0.20;;;;;;;17.50;100.00;97194.91;18437541;32;20131;-57
2023/08/03 20:49:36;;;;;;;0.55;0.20;;;;;;;17.18;100.00;97206.06;18435755;32;20110;-57
2023/08/03 20:59:39;;;;;;;0.62;0.30;;;;;;;16.89;100.00;97206.75;18435700;32;20113;-57
2023/08/03 21:09:44;;;;;;;0.93;0.40;;;;;;;16.64;100.00;97202.91;18435131;32;20083;-57
2023/08/03 21:20:07;;;;;;;;;;;;;;;16.37;100.00;97196.63;18434996;32;20122;-57
2023/08/03 21:30:10;;;;;;;0.43;0.20;;;;;;;16.19;100.00;97198.53;18419075;32;19953;-57
2023/08/03 21:40:17;;;;;;;1.85;0.40;;;;;;;16.04;100.00;97199.78;18407556;32;20408;-57
2023/08/03 21:50:19;;;;;;;0.45;0.20;;;;;;;15.85;100.00;97211.72;18418952;32;20061;-57
2023/08/03 22:00:26;;;;;;;2.92;0.45;;;;;;;15.59;100.00;97198.81;18432025;32;20367;-57
2023/08/03 22:10:29;;;;;;;2.15;0.30;;;;;;;15.47;100.00;97195.87;18417974;32;20416;-57
2023/08/03 22:20:31;;;;;;;3.17;0.40;;;;;;;15.30;100.00;97198.50;18428188;32;20057;-57
2023/08/03 22:30:38;;;;;;;1.58;0.60;;;;;;;15.10;100.00;97211.50;18428005;32;20065;-57
2023/08/03 22:40:41;;;;;;;2.05;0.45;;;;;;;14.98;100.00;97213.97;18431266;32;20053;-57
2023/08/03 22:50:44;;;;;;;0.47;0.25;;;;;;;14.79;100.00;97225.09;18430369;32;20129;-57
2023/08/03 23:00:47;;;;;;;0.62;0.20;;;;;;;14.68;100.00;97227.22;18430334;32;20118;-57
2023/08/03 23:10:50;;;;;;;1.00;0.10;;;;;;;14.47;100.00;97226.84;18430919;32;20127;-57
2023/08/03 23:21:03;;;;;;;2.22;0.57;;;;;;;14.36;100.00;97223.53;18441550;32;20065;-57
2023/08/03 23:31:06;;;;;;;1.05;0.40;;;;;;;14.27;100.00;97225.41;18441506;32;20085;-57
2023/08/03 23:41:09;;;;;;;0.62;0.30;;;;;;;14.15;100.00;97243.00;18426496;32;20080;-57
2023/08/03 23:51:12;;;;;;;1.40;0.40;;;;;;;14.10;100.00;97242.31;18439895;32;20058;-57
